Home > Products > Valid Products > TAF

000
FTUS45 KLKN 290210 AAA
TAFEKO
TAF AMD
KEKO 290210Z 2902/2924 24009KT P6SM SCT150 SCT200
     FM291800 23019G29KT P6SM VCSH BKN070 OVC100=



000
FTUS45 KLKN 290210 AAA
TAFEKO
TAF AMD
KEKO 290210Z 2902/2924 24009KT P6SM SCT150 SCT200
     FM291800 23019G29KT P6SM VCSH BKN070 OVC100=



000
FTUS45 KLKN 290159 AAA
TAFELY
TAF AMD
KELY 290159Z 2902/2924 17012KT P6SM SCT150 SCT200
     FM291800 20013KT P6SM OVC250=



000
FTUS45 KLKN 290158 AAA
TAFWMC
TAF AMD
KWMC 290158Z 2902/2924 28011G18KT 2SM HZ SCT021 BKN200
     FM290300 21010KT P6SM BKN200=



000
FTUS45 KLKN 290158 AAA
TAFWMC
TAF AMD
KWMC 290158Z 2902/2924 28011G18KT 2SM HZ SCT021 BKN200
     FM290300 21010KT P6SM BKN200=



000
FTUS45 KLKN 282320
TAFWMC
TAF
KWMC 282320Z 2900/2924 21010G25KT P6SM BKN200
     FM290300 21010KT P6SM BKN200=



000
FTUS45 KLKN 282320
TAFTPH
TAF
KTPH 282320Z 2900/2924 19008G18KT P6SM FEW200
     FM290200 03009KT P6SM SCT200=



000
FTUS45 KLKN 282320
TAFEKO
TAF
KEKO 282320Z 2900/2924 24010G20KT P6SM BKN200
     FM290300 26009KT P6SM SCT200=



000
FTUS45 KLKN 282320
TAFELY
TAF
KELY 282320Z 2900/2924 20011G22KT P6SM SCT200
     FM291800 20013KT P6SM OVC250=



000
FTUS45 KLKN 282320
TAFEKO
TAF
KEKO 282320Z 2900/2924 24010G20KT P6SM BKN200
     FM290300 26009KT P6SM SCT200=



000
FTUS45 KLKN 282320
TAFELY
TAF
KELY 282320Z 2900/2924 20011G22KT P6SM SCT200
     FM291800 20013KT P6SM OVC250=



000
FTUS45 KLKN 282320
TAFTPH
TAF
KTPH 282320Z 2900/2924 19008G18KT P6SM FEW200
     FM290200 03009KT P6SM SCT200=



000
FTUS45 KLKN 282320
TAFWMC
TAF
KWMC 282320Z 2900/2924 21010G25KT P6SM BKN200
     FM290300 21010KT P6SM BKN200=



000
FTUS45 KLKN 281720
TAFWMC
TAF
KWMC 281720Z 2818/2918 17008KT P6SM BKN200
     FM282000 21010G20KT P6SM BKN200=



000
FTUS45 KLKN 281720
TAFTPH
TAF
KTPH 281720Z 2818/2918 36008KT P6SM FEW200
     FM282000 19008G18KT P6SM FEW200
     FM290200 03009KT P6SM FEW200=



000
FTUS45 KLKN 281720
TAFELY
TAF
KELY 281720Z 2818/2918 18008KT P6SM FEW200
     FM282000 19011G22KT P6SM SCT200=



000
FTUS45 KLKN 281720
TAFEKO
TAF
KEKO 281720Z 2818/2918 VRB06KT P6SM SCT200
     FM282000 24010G20KT P6SM SCT200
     FM290200 26009KT P6SM BKN200=



000
FTUS45 KLKN 281720
TAFELY
TAF
KELY 281720Z 2818/2918 18008KT P6SM FEW200
     FM282000 19011G22KT P6SM SCT200=



000
FTUS45 KLKN 281720
TAFWMC
TAF
KWMC 281720Z 2818/2918 17008KT P6SM BKN200
     FM282000 21010G20KT P6SM BKN200=



000
FTUS45 KLKN 281720
TAFTPH
TAF
KTPH 281720Z 2818/2918 36008KT P6SM FEW200
     FM282000 19008G18KT P6SM FEW200
     FM290200 03009KT P6SM FEW200=



000
FTUS45 KLKN 281720
TAFEKO
TAF
KEKO 281720Z 2818/2918 VRB06KT P6SM SCT200
     FM282000 24010G20KT P6SM SCT200
     FM290200 26009KT P6SM BKN200=



000
FTUS45 KLKN 281120
TAFWMC
TAF
KWMC 281120Z 2812/2912 17009KT P6SM BKN200
     FM282000 21010G20KT P6SM BKN200=



000
FTUS45 KLKN 281120
TAFTPH
TAF
KTPH 281120Z 2812/2912 36009KT P6SM FEW200
     FM282000 19008G18KT P6SM FEW200
     FM290200 03009KT P6SM FEW200=



000
FTUS45 KLKN 281120
TAFEKO
TAF
KEKO 281120Z 2812/2912 VRB06KT P6SM SCT200
     FM282000 24010G20KT P6SM SCT200
     FM290200 26009KT P6SM BKN200=



000
FTUS45 KLKN 281120
TAFELY
TAF
KELY 281120Z 2812/2912 18009KT P6SM FEW200
     FM282000 19011G21KT P6SM SCT200=



000
FTUS45 KLKN 281120
TAFELY
TAF
KELY 281120Z 2812/2912 18009KT P6SM FEW200
     FM282000 19011G21KT P6SM SCT200=



000
FTUS45 KLKN 281120
TAFWMC
TAF
KWMC 281120Z 2812/2912 17009KT P6SM BKN200
     FM282000 21010G20KT P6SM BKN200=



000
FTUS45 KLKN 281120
TAFEKO
TAF
KEKO 281120Z 2812/2912 VRB06KT P6SM SCT200
     FM282000 24010G20KT P6SM SCT200
     FM290200 26009KT P6SM BKN200=



000
FTUS45 KLKN 281120
TAFTPH
TAF
KTPH 281120Z 2812/2912 36009KT P6SM FEW200
     FM282000 19008G18KT P6SM FEW200
     FM290200 03009KT P6SM FEW200=



000
FTUS45 KLKN 280538
TAFEKO
TAF
KEKO 280538Z 2806/2906 VRB06KT P6SM SCT200
     FM282000 24010G20KT P6SM SCT200
     FM290200 26009KT P6SM BKN200=



000
FTUS45 KLKN 280538
TAFWMC
TAF
KWMC 280538Z 2806/2906 17009KT P6SM BKN200
     FM282000 21010G20KT P6SM BKN200=



000
FTUS45 KLKN 280538
TAFWMC
TAF
KWMC 280538Z 2806/2906 17009KT P6SM BKN200
     FM282000 21010G20KT P6SM BKN200=



000
FTUS45 KLKN 280538
TAFELY
TAF
KELY 280538Z 2806/2906 18009KT P6SM FEW200
     FM282000 19011G21KT P6SM SCT200=



000
FTUS45 KLKN 280538
TAFTPH
TAF
KTPH 280538Z 2806/2906 36009KT P6SM FEW200
     FM282000 19008G18KT P6SM FEW200
     FM290200 03009KT P6SM FEW200=



000
FTUS45 KLKN 280538
TAFEKO
TAF
KEKO 280538Z 2806/2906 VRB06KT P6SM SCT200
     FM282000 24010G20KT P6SM SCT200
     FM290200 26009KT P6SM BKN200=



000
FTUS45 KLKN 280538
TAFELY
TAF
KELY 280538Z 2806/2906 18009KT P6SM FEW200
     FM282000 19011G21KT P6SM SCT200=



000
FTUS45 KLKN 280538
TAFTPH
TAF
KTPH 280538Z 2806/2906 36009KT P6SM FEW200
     FM282000 19008G18KT P6SM FEW200
     FM290200 03009KT P6SM FEW200=



000
FTUS45 KLKN 272320
TAFELY
TAF
KELY 272320Z 2800/2824 VRB05KT P6SM OVC180
     FM280300 18010KT P6SM BKN200
     FM282100 20012G20KT P6SM BKN200=



000
FTUS45 KLKN 272320
TAFELY
TAF
KELY 272320Z 2800/2824 VRB05KT P6SM OVC180
     FM280300 18010KT P6SM BKN200
     FM282100 20012G20KT P6SM BKN200=



000
FTUS45 KLKN 272320
TAFEKO
TAF
KEKO 272320Z 2800/2824 VRB05KT P6SM OVC150
     FM280300 VRB03KT P6SM BKN180
     FM282000 23016G26KT P6SM SCT150 BKN200=



000
FTUS45 KLKN 272320
TAFTPH
TAF
KTPH 272320Z 2800/2824 VRB05KT P6SM OVC200
     FM280600 01009KT P6SM BKN200
     FM282100 19009G17KT P6SM BKN200=



000
FTUS45 KLKN 272320
TAFEKO
TAF
KEKO 272320Z 2800/2824 VRB05KT P6SM OVC150
     FM280300 VRB03KT P6SM BKN180
     FM282000 23016G26KT P6SM SCT150 BKN200=



000
FTUS45 KLKN 272320
TAFWMC
TAF
KWMC 272320Z 2800/2824 18009KT P6SM OVC150
     FM280300 VRB05KT P6SM BKN180
     FM282000 19015G25KT P6SM SCT150 BKN200=



000
FTUS45 KLKN 272320
TAFWMC
TAF
KWMC 272320Z 2800/2824 18009KT P6SM OVC150
     FM280300 VRB05KT P6SM BKN180
     FM282000 19015G25KT P6SM SCT150 BKN200=



000
FTUS45 KLKN 271720
TAFTPH
TAF
KTPH 271720Z 2718/2818 VRB05KT P6SM OVC200
     FM272000 19007KT P6SM BKN200
     FM280600 01009KT P6SM BKN250=



000
FTUS45 KLKN 271720
TAFEKO
TAF
KEKO 271720Z 2718/2818 VRB03KT P6SM OVC180
     FM272100 22007KT P6SM OVC200
     FM280300 VRB03KT P6SM BKN200=



000
FTUS45 KLKN 271720
TAFWMC
TAF
KWMC 271720Z 2718/2818 17007KT P6SM OVC150
     FM272100 19007KT P6SM BKN200
     FM280300 VRB05KT P6SM BKN200=



000
FTUS45 KLKN 271720
TAFELY
TAF
KELY 271720Z 2718/2818 17005KT P6SM OVC200
     FM272100 20007KT P6SM OVC200
     FM280300 18009KT P6SM BKN200=



000
FTUS45 KLKN 271720
TAFWMC
TAF
KWMC 271720Z 2718/2818 17007KT P6SM OVC150
     FM272100 19007KT P6SM BKN200
     FM280300 VRB05KT P6SM BKN200=



000
FTUS45 KLKN 271720
TAFELY
TAF
KELY 271720Z 2718/2818 17005KT P6SM OVC200
     FM272100 20007KT P6SM OVC200
     FM280300 18009KT P6SM BKN200=



000
FTUS45 KLKN 271720
TAFTPH
TAF
KTPH 271720Z 2718/2818 VRB05KT P6SM OVC200
     FM272000 19007KT P6SM BKN200
     FM280600 01009KT P6SM BKN250=



000
FTUS45 KLKN 271720
TAFEKO
TAF
KEKO 271720Z 2718/2818 VRB03KT P6SM OVC180
     FM272100 22007KT P6SM OVC200
     FM280300 VRB03KT P6SM BKN200=



000
FTUS45 KLKN 271120
TAFTPH
TAF
KTPH 271120Z 2712/2812 36009KT P6SM FEW200
     FM272000 19009KT P6SM FEW200
     FM280200 01009KT P6SM FEW200=



000
FTUS45 KLKN 271120
TAFWMC
TAF
KWMC 271120Z 2712/2812 VRB06KT P6SM BKN200=



000
FTUS45 KLKN 271120
TAFELY
TAF
KELY 271120Z 2712/2812 19009KT P6SM SCT200=



000
FTUS45 KLKN 271120
TAFEKO
TAF
KEKO 271120Z 2712/2812 VRB06KT P6SM BKN200=



000
FTUS45 KLKN 271120
TAFTPH
TAF
KTPH 271120Z 2712/2812 36009KT P6SM FEW200
     FM272000 19009KT P6SM FEW200
     FM280200 01009KT P6SM FEW200=



000
FTUS45 KLKN 271120
TAFEKO
TAF
KEKO 271120Z 2712/2812 VRB06KT P6SM BKN200=



000
FTUS45 KLKN 271120
TAFELY
TAF
KELY 271120Z 2712/2812 19009KT P6SM SCT200=



000
FTUS45 KLKN 271120
TAFWMC
TAF
KWMC 271120Z 2712/2812 VRB06KT P6SM BKN200=



000
FTUS45 KLKN 270536
TAFWMC
TAF
KWMC 270536Z 2706/2806 VRB06KT P6SM BKN200=



000
FTUS45 KLKN 270536
TAFTPH
TAF
KTPH 270536Z 2706/2806 36009KT P6SM FEW200
     FM272000 19009KT P6SM FEW200
     FM280200 01009KT P6SM FEW200=



000
FTUS45 KLKN 270536
TAFELY
TAF
KELY 270536Z 2706/2806 19009KT P6SM SCT200=



000
FTUS45 KLKN 270536
TAFELY
TAF
KELY 270536Z 2706/2806 19009KT P6SM SCT200=



000
FTUS45 KLKN 270536
TAFTPH
TAF
KTPH 270536Z 2706/2806 36009KT P6SM FEW200
     FM272000 19009KT P6SM FEW200
     FM280200 01009KT P6SM FEW200=



000
FTUS45 KLKN 270536
TAFWMC
TAF
KWMC 270536Z 2706/2806 VRB06KT P6SM BKN200=



000
FTUS45 KLKN 270536
TAFEKO
TAF
KEKO 270536Z 2706/2806 VRB06KT P6SM BKN200=



000
FTUS45 KLKN 270536
TAFEKO
TAF
KEKO 270536Z 2706/2806 VRB06KT P6SM BKN200=



000
FTUS45 KLKN 262320
TAFWMC
TAF
KWMC 262320Z 2700/2724 27005KT P6SM BKN200
     FM270200 14006KT P6SM OVC200
     FM270900 14006KT P6SM OVC170
     FM272000 21007KT P6SM OVC170=



000
FTUS45 KLKN 262320
TAFWMC
TAF
KWMC 262320Z 2700/2724 27005KT P6SM BKN200
     FM270200 14006KT P6SM OVC200
     FM270900 14006KT P6SM OVC170
     FM272000 21007KT P6SM OVC170=



000
FTUS45 KLKN 262320
TAFEKO
TAF
KEKO 262320Z 2700/2724 24005KT P6SM SCT200
     FM270200 VRB02KT P6SM BKN200
     FM270900 08002KT P6SM OVC170
     FM271900 23006KT P6SM OVC150=



000
FTUS45 KLKN 262320
TAFELY
TAF
KELY 262320Z 2700/2724 26007KT P6SM SCT250
     FM270300 18009KT P6SM BKN250
     FM270900 18009KT P6SM OVC200
     FM271900 21007KT P6SM OVC200=



000
FTUS45 KLKN 262320
TAFTPH
TAF
KTPH 262320Z 2700/2724 23005KT P6SM SKC
     FM270200 35007KT P6SM BKN250
     FM271900 19007KT P6SM OVC200=



000
FTUS45 KLKN 262320
TAFELY
TAF
KELY 262320Z 2700/2724 26007KT P6SM SCT250
     FM270300 18009KT P6SM BKN250
     FM270900 18009KT P6SM OVC200
     FM271900 21007KT P6SM OVC200=



000
FTUS45 KLKN 262320
TAFEKO
TAF
KEKO 262320Z 2700/2724 24005KT P6SM SCT200
     FM270200 VRB02KT P6SM BKN200
     FM270900 08002KT P6SM OVC170
     FM271900 23006KT P6SM OVC150=



000
FTUS45 KLKN 262320
TAFTPH
TAF
KTPH 262320Z 2700/2724 23005KT P6SM SKC
     FM270200 35007KT P6SM BKN250
     FM271900 19007KT P6SM OVC200=



000
FTUS45 KLKN 261720
TAFWMC
TAF
KWMC 261720Z 2618/2718 05003KT P6SM SCT200
     FM262000 19006KT P6SM BKN200
     FM270200 14005KT P6SM OVC200=



000
FTUS45 KLKN 261720
TAFTPH
TAF
KTPH 261720Z 2618/2718 VRB03KT P6SM SKC
     FM262000 28006KT P6SM SKC
     FM270200 35007KT P6SM SKC=



000
FTUS45 KLKN 261720
TAFEKO
TAF
KEKO 261720Z 2618/2718 VRB02KT P6SM SCT250
     FM262000 22005KT P6SM SCT200
     FM270200 VRB02KT P6SM BKN200=



000
FTUS45 KLKN 261720
TAFWMC
TAF
KWMC 261720Z 2618/2718 05003KT P6SM SCT200
     FM262000 19006KT P6SM BKN200
     FM270200 14005KT P6SM OVC200=



000
FTUS45 KLKN 261720
TAFELY
TAF
KELY 261720Z 2618/2718 17007KT P6SM SKC
     FM262000 27005KT P6SM SCT250
     FM270300 18009KT P6SM BKN250=



000
FTUS45 KLKN 261720
TAFEKO
TAF
KEKO 261720Z 2618/2718 VRB02KT P6SM SCT250
     FM262000 22005KT P6SM SCT200
     FM270200 VRB02KT P6SM BKN200=



000
FTUS45 KLKN 261720
TAFTPH
TAF
KTPH 261720Z 2618/2718 VRB03KT P6SM SKC
     FM262000 28006KT P6SM SKC
     FM270200 35007KT P6SM SKC=



000
FTUS45 KLKN 261720
TAFELY
TAF
KELY 261720Z 2618/2718 17007KT P6SM SKC
     FM262000 27005KT P6SM SCT250
     FM270300 18009KT P6SM BKN250=



000
FTUS45 KLKN 261120
TAFWMC
TAF
KWMC 261120Z 2612/2712 VRB06KT P6SM SCT150=



000
FTUS45 KLKN 261120
TAFEKO
TAF
KEKO 261120Z 2612/2712 VRB06KT P6SM SCT150=



000
FTUS45 KLKN 261120
TAFTPH
TAF
KTPH 261120Z 2612/2712 36009KT P6SM SKC
     FM262000 26006KT P6SM SKC
     FM270200 01009KT P6SM SKC=



000
FTUS45 KLKN 261120
TAFWMC
TAF
KWMC 261120Z 2612/2712 VRB06KT P6SM SCT150=



000
FTUS45 KLKN 261120
TAFELY
TAF
KELY 261120Z 2612/2712 18009KT P6SM SCT150
     FM261700 VRB06KT P6SM FEW150
     FM270200 18009KT P6SM SKC=



000
FTUS45 KLKN 260536
TAFELY
TAF
KELY 260536Z 2606/2706 18009KT P6SM SCT150
     FM261700 VRB06KT P6SM FEW150
     FM270200 18009KT P6SM SKC=



000
FTUS45 KLKN 260536
TAFTPH
TAF
KTPH 260536Z 2606/2706 36009KT P6SM SKC
     FM262000 26006KT P6SM SKC
     FM270200 01009KT P6SM SKC=



000
FTUS45 KLKN 260536
TAFWMC
TAF
KWMC 260536Z 2606/2706 VRB06KT P6SM SCT150=



000
FTUS45 KLKN 260536
TAFEKO
TAF
KEKO 260536Z 2606/2706 VRB06KT P6SM SCT150=



000
FTUS45 KLKN 260536
TAFELY
TAF
KELY 260536Z 2606/2706 18009KT P6SM SCT150
     FM261700 VRB06KT P6SM FEW150
     FM270200 18009KT P6SM SKC=



000
FTUS45 KLKN 260536
TAFEKO
TAF
KEKO 260536Z 2606/2706 VRB06KT P6SM SCT150=



000
FTUS45 KLKN 260536
TAFTPH
TAF
KTPH 260536Z 2606/2706 36009KT P6SM SKC
     FM262000 26006KT P6SM SKC
     FM270200 01009KT P6SM SKC=



000
FTUS45 KLKN 260536
TAFWMC
TAF
KWMC 260536Z 2606/2706 VRB06KT P6SM SCT150=



    US Dept of Commerce
    National Oceanic and Atmospheric Administration
    National Weather Service
    1325 East West Highway
    Silver Spring, MD 20910
    Page Author: NWS Internet Services Team
Disclaimer
Information Quality
Credits
Glossary
Privacy Policy
Freedom of Information Act (FOIA)
About Us
Career Opportunities